sensor_id;sensor_type;location;lat;lon;timestamp;P1;durP1;ratioP1;P2;durP2;ratioP2
23632;SDS011;11993;48.748;9.166;2023-02-19T00:02:24;4.90;;;2.28;;
23632;SDS011;11993;48.748;9.166;2023-02-19T00:04:50;3.60;;;2.35;;
23632;SDS011;11993;48.748;9.166;2023-02-19T00:07:15;2.83;;;2.03;;
23632;SDS011;11993;48.748;9.166;2023-02-19T00:09:41;3.25;;;2.47;;
23632;SDS011;11993;48.748;9.166;2023-02-19T00:12:06;4.90;;;2.30;;
23632;SDS011;11993;48.748;9.166;2023-02-19T00:14:32;3.70;;;2.28;;
23632;SDS011;11993;48.748;9.166;2023-02-19T00:16:57;6.28;;;2.50;;
23632;SDS011;11993;48.748;9.166;2023-02-19T00:19:23;4.22;;;2.03;;
23632;SDS011;11993;48.748;9.166;2023-02-19T00:21:51;5.18;;;2.10;;
23632;SDS011;11993;48.748;9.166;2023-02-19T00:24:17;4.57;;;2.30;;
23632;SDS011;11993;48.748;9.166;2023-02-19T00:26:44;2.15;;;1.90;;
23632;SDS011;11993;48.748;9.166;2023-02-19T00:29:20;2.63;;;1.75;;
23632;SDS011;11993;48.748;9.166;2023-02-19T00:31:46;2.45;;;1.90;;
23632;SDS011;11993;48.748;9.166;2023-02-19T00:34:12;1.67;;;1.58;;
23632;SDS011;11993;48.748;9.166;2023-02-19T00:36:38;2.92;;;1.80;;
23632;SDS011;11993;48.748;9.166;2023-02-19T00:39:06;2.50;;;1.90;;
23632;SDS011;11993;48.748;9.166;2023-02-19T00:41:32;3.75;;;2.20;;
23632;SDS011;11993;48.748;9.166;2023-02-19T00:44:00;2.40;;;1.42;;
23632;SDS011;11993;48.748;9.166;2023-02-19T00:46:29;2.97;;;1.92;;
23632;SDS011;11993;48.748;9.166;2023-02-19T00:49:03;3.17;;;1.70;;
23632;SDS011;11993;48.748;9.166;2023-02-19T00:51:31;3.13;;;1.67;;
23632;SDS011;11993;48.748;9.166;2023-02-19T00:53:58;2.20;;;1.58;;
23632;SDS011;11993;48.748;9.166;2023-02-19T00:56:24;3.35;;;1.63;;
23632;SDS011;11993;48.748;9.166;2023-02-19T00:58:51;2.13;;;1.70;;
23632;SDS011;11993;48.748;9.166;2023-02-19T01:01:17;2.22;;;1.75;;
23632;SDS011;11993;48.748;9.166;2023-02-19T01:03:43;3.95;;;1.90;;
23632;SDS011;11993;48.748;9.166;2023-02-19T01:06:10;2.08;;;1.88;;
23632;SDS011;11993;48.748;9.166;2023-02-19T01:08:37;2.15;;;1.65;;
23632;SDS011;11993;48.748;9.166;2023-02-19T01:11:03;1.77;;;1.60;;
23632;SDS011;11993;48.748;9.166;2023-02-19T01:13:30;3.25;;;1.60;;
23632;SDS011;11993;48.748;9.166;2023-02-19T01:16:03;2.17;;;1.73;;
23632;SDS011;11993;48.748;9.166;2023-02-19T01:18:42;1.70;;;1.55;;
23632;SDS011;11993;48.748;9.166;2023-02-19T01:21:10;1.95;;;1.73;;
23632;SDS011;11993;48.748;9.166;2023-02-19T01:23:37;1.95;;;1.60;;
23632;SDS011;11993;48.748;9.166;2023-02-19T01:26:04;2.67;;;1.83;;
23632;SDS011;11993;48.748;9.166;2023-02-19T01:28:30;2.65;;;1.98;;
23632;SDS011;11993;48.748;9.166;2023-02-19T01:30:59;1.92;;;1.50;;
23632;SDS011;11993;48.748;9.166;2023-02-19T01:33:26;1.85;;;1.65;;
23632;SDS011;11993;48.748;9.166;2023-02-19T01:35:51;2.92;;;1.60;;
23632;SDS011;11993;48.748;9.166;2023-02-19T01:38:17;4.03;;;1.95;;
23632;SDS011;11993;48.748;9.166;2023-02-19T01:40:42;1.80;;;1.40;;
23632;SDS011;11993;48.748;9.166;2023-02-19T01:43:13;2.92;;;1.60;;
23632;SDS011;11993;48.748;9.166;2023-02-19T01:45:42;4.18;;;1.73;;
23632;SDS011;11993;48.748;9.166;2023-02-19T01:48:16;1.85;;;1.65;;
23632;SDS011;11993;48.748;9.166;2023-02-19T01:50:53;2.80;;;1.73;;
23632;SDS011;11993;48.748;9.166;2023-02-19T01:53:27;1.77;;;1.67;;
23632;SDS011;11993;48.748;9.166;2023-02-19T01:55:57;4.28;;;1.70;;
23632;SDS011;11993;48.748;9.166;2023-02-19T01:58:25;1.60;;;1.40;;
23632;SDS011;11993;48.748;9.166;2023-02-19T02:00:53;2.75;;;1.52;;
23632;SDS011;11993;48.748;9.166;2023-02-19T02:03:19;2.65;;;1.80;;
23632;SDS011;11993;48.748;9.166;2023-02-19T02:05:48;2.00;;;1.30;;
23632;SDS011;11993;48.748;9.166;2023-02-19T02:08:21;1.55;;;1.33;;
23632;SDS011;11993;48.748;9.166;2023-02-19T02:11:07;3.03;;;1.63;;
23632;SDS011;11993;48.748;9.166;2023-02-19T02:13:32;3.15;;;1.77;;
23632;SDS011;11993;48.748;9.166;2023-02-19T02:16:03;2.42;;;1.90;;
23632;SDS011;11993;48.748;9.166;2023-02-19T02:18:53;2.05;;;1.75;;
23632;SDS011;11993;48.748;9.166;2023-02-19T02:24:21;2.78;;;1.92;;
23632;SDS011;11993;48.748;9.166;2023-02-19T02:27:56;3.15;;;1.70;;
23632;SDS011;11993;48.748;9.166;2023-02-19T02:33:13;1.70;;;1.60;;
23632;SDS011;11993;48.748;9.166;2023-02-19T02:35:44;1.80;;;1.60;;
23632;SDS011;11993;48.748;9.166;2023-02-19T02:38:24;1.90;;;1.67;;
23632;SDS011;11993;48.748;9.166;2023-02-19T02:40:53;5.82;;;1.85;;
23632;SDS011;11993;48.748;9.166;2023-02-19T02:43:20;2.25;;;1.70;;
23632;SDS011;11993;48.748;9.166;2023-02-19T02:45:45;2.15;;;1.73;;
23632;SDS011;11993;48.748;9.166;2023-02-19T02:48:16;2.92;;;1.98;;
23632;SDS011;11993;48.748;9.166;2023-02-19T02:50:49;2.67;;;1.83;;
23632;SDS011;11993;48.748;9.166;2023-02-19T02:56:26;3.10;;;1.70;;
23632;SDS011;11993;48.748;9.166;2023-02-19T02:58:54;2.83;;;1.83;;
23632;SDS011;11993;48.748;9.166;2023-02-19T03:01:34;2.42;;;1.63;;
23632;SDS011;11993;48.748;9.166;2023-02-19T03:04:34;4.10;;;1.75;;
23632;SDS011;11993;48.748;9.166;2023-02-19T03:07:03;1.90;;;1.63;;
23632;SDS011;11993;48.748;9.166;2023-02-19T03:09:33;2.10;;;1.33;;
23632;SDS011;11993;48.748;9.166;2023-02-19T03:12:05;2.58;;;1.70;;
23632;SDS011;11993;48.748;9.166;2023-02-19T03:14:52;4.07;;;1.80;;
23632;SDS011;11993;48.748;9.166;2023-02-19T03:17:43;3.45;;;1.67;;
23632;SDS011;11993;48.748;9.166;2023-02-19T03:20:32;2.00;;;1.50;;
23632;SDS011;11993;48.748;9.166;2023-02-19T03:23:00;3.13;;;1.73;;
23632;SDS011;11993;48.748;9.166;2023-02-19T03:25:30;3.33;;;1.98;;
23632;SDS011;11993;48.748;9.166;2023-02-19T03:28:16;2.58;;;2.00;;
23632;SDS011;11993;48.748;9.166;2023-02-19T03:31:05;2.65;;;1.70;;
23632;SDS011;11993;48.748;9.166;2023-02-19T03:33:35;5.25;;;2.03;;
23632;SDS011;11993;48.748;9.166;2023-02-19T03:36:04;2.38;;;1.77;;
23632;SDS011;11993;48.748;9.166;2023-02-19T03:38:36;3.88;;;1.65;;
23632;SDS011;11993;48.748;9.166;2023-02-19T03:41:09;3.42;;;2.00;;
23632;SDS011;11993;48.748;9.166;2023-02-19T03:43:43;2.00;;;1.67;;
23632;SDS011;11993;48.748;9.166;2023-02-19T03:46:33;1.63;;;1.50;;
23632;SDS011;11993;48.748;9.166;2023-02-19T03:49:03;2.88;;;1.50;;
23632;SDS011;11993;48.748;9.166;2023-02-19T03:51:41;2.20;;;1.58;;
23632;SDS011;11993;48.748;9.166;2023-02-19T03:54:31;3.05;;;1.85;;
23632;SDS011;11993;48.748;9.166;2023-02-19T03:59:38;2.00;;;1.27;;
23632;SDS011;11993;48.748;9.166;2023-02-19T04:02:29;1.60;;;1.50;;
23632;SDS011;11993;48.748;9.166;2023-02-19T04:05:02;2.35;;;1.40;;
23632;SDS011;11993;48.748;9.166;2023-02-19T04:07:32;3.92;;;1.40;;
23632;SDS011;11993;48.748;9.166;2023-02-19T04:10:00;1.33;;;1.13;;
23632;SDS011;11993;48.748;9.166;2023-02-19T04:12:28;1.27;;;1.10;;
23632;SDS011;11993;48.748;9.166;2023-02-19T04:14:58;1.38;;;1.15;;
23632;SDS011;11993;48.748;9.166;2023-02-19T04:18:12;1.30;;;1.08;;
23632;SDS011;11993;48.748;9.166;2023-02-19T04:20:28;1.85;;;1.17;;
23632;SDS011;11993;48.748;9.166;2023-02-19T04:22:58;2.10;;;1.00;;
23632;SDS011;11993;48.748;9.166;2023-02-19T04:25:25;2.50;;;1.10;;
23632;SDS011;11993;48.748;9.166;2023-02-19T04:27:51;1.88;;;1.10;;
23632;SDS011;11993;48.748;9.166;2023-02-19T04:30:17;1.13;;;0.93;;
23632;SDS011;11993;48.748;9.166;2023-02-19T04:32:43;2.28;;;1.02;;
23632;SDS011;11993;48.748;9.166;2023-02-19T04:35:08;1.27;;;0.82;;
23632;SDS011;11993;48.748;9.166;2023-02-19T04:37:34;3.05;;;0.90;;
23632;SDS011;11993;48.748;9.166;2023-02-19T04:39:59;1.00;;;0.90;;
23632;SDS011;11993;48.748;9.166;2023-02-19T04:42:25;0.98;;;0.90;;
23632;SDS011;11993;48.748;9.166;2023-02-19T04:44:50;1.38;;;0.80;;
23632;SDS011;11993;48.748;9.166;2023-02-19T04:47:16;0.80;;;0.80;;
23632;SDS011;11993;48.748;9.166;2023-02-19T04:49:42;1.60;;;0.70;;
23632;SDS011;11993;48.748;9.166;2023-02-19T04:52:08;1.02;;;0.75;;
23632;SDS011;11993;48.748;9.166;2023-02-19T04:54:34;0.80;;;0.70;;
23632;SDS011;11993;48.748;9.166;2023-02-19T04:57:00;1.20;;;1.10;;
23632;SDS011;11993;48.748;9.166;2023-02-19T04:59:26;0.90;;;0.63;;
23632;SDS011;11993;48.748;9.166;2023-02-19T05:01:51;1.13;;;0.60;;
23632;SDS011;11993;48.748;9.166;2023-02-19T05:04:17;0.40;;;0.40;;
23632;SDS011;11993;48.748;9.166;2023-02-19T05:06:42;0.65;;;0.65;;
23632;SDS011;11993;48.748;9.166;2023-02-19T05:09:08;0.70;;;0.70;;
23632;SDS011;11993;48.748;9.166;2023-02-19T05:11:34;0.60;;;0.40;;
23632;SDS011;11993;48.748;9.166;2023-02-19T05:13:59;0.40;;;0.40;;
23632;SDS011;11993;48.748;9.166;2023-02-19T05:16:25;0.40;;;0.40;;
23632;SDS011;11993;48.748;9.166;2023-02-19T05:18:51;1.23;;;0.70;;
23632;SDS011;11993;48.748;9.166;2023-02-19T05:21:16;0.45;;;0.45;;
23632;SDS011;11993;48.748;9.166;2023-02-19T05:23:42;0.45;;;0.45;;
23632;SDS011;11993;48.748;9.166;2023-02-19T05:26:15;0.98;;;0.50;;
23632;SDS011;11993;48.748;9.166;2023-02-19T05:28:43;0.40;;;0.40;;
23632;SDS011;11993;48.748;9.166;2023-02-19T05:31:09;1.63;;;0.60;;
23632;SDS011;11993;48.748;9.166;2023-02-19T05:33:36;2.40;;;0.38;;
23632;SDS011;11993;48.748;9.166;2023-02-19T05:36:06;1.75;;;0.50;;
23632;SDS011;11993;48.748;9.166;2023-02-19T05:38:33;0.60;;;0.40;;
23632;SDS011;11993;48.748;9.166;2023-02-19T05:41:16;1.00;;;0.40;;
23632;SDS011;11993;48.748;9.166;2023-02-19T05:43:46;0.47;;;0.47;;
23632;SDS011;11993;48.748;9.166;2023-02-19T05:46:14;0.47;;;0.40;;
23632;SDS011;11993;48.748;9.166;2023-02-19T05:48:41;0.85;;;0.45;;
23632;SDS011;11993;48.748;9.166;2023-02-19T05:51:08;0.30;;;0.30;;
23632;SDS011;11993;48.748;9.166;2023-02-19T05:53:35;0.30;;;0.20;;
23632;SDS011;11993;48.748;9.166;2023-02-19T05:56:02;0.30;;;0.30;;
23632;SDS011;11993;48.748;9.166;2023-02-19T05:58:27;2.70;;;0.70;;
23632;SDS011;11993;48.748;9.166;2023-02-19T06:00:53;2.45;;;1.77;;
23632;SDS011;11993;48.748;9.166;2023-02-19T06:03:20;0.75;;;0.75;;
23632;SDS011;11993;48.748;9.166;2023-02-19T06:05:46;0.30;;;0.30;;
23632;SDS011;11993;48.748;9.166;2023-02-19T06:08:12;0.65;;;0.40;;
23632;SDS011;11993;48.748;9.166;2023-02-19T06:10:38;0.30;;;0.30;;
23632;SDS011;11993;48.748;9.166;2023-02-19T06:13:05;1.90;;;1.20;;
23632;SDS011;11993;48.748;9.166;2023-02-19T06:15:35;0.40;;;0.40;;
23632;SDS011;11993;48.748;9.166;2023-02-19T06:18:01;0.40;;;0.40;;
23632;SDS011;11993;48.748;9.166;2023-02-19T06:20:27;0.38;;;0.20;;
23632;SDS011;11993;48.748;9.166;2023-02-19T06:22:53;0.32;;;0.32;;
23632;SDS011;11993;48.748;9.166;2023-02-19T06:25:18;0.82;;;0.40;;
23632;SDS011;11993;48.748;9.166;2023-02-19T06:27:44;0.30;;;0.30;;
23632;SDS011;11993;48.748;9.166;2023-02-19T06:30:10;0.20;;;0.20;;
23632;SDS011;11993;48.748;9.166;2023-02-19T06:32:36;0.30;;;0.30;;
23632;SDS011;11993;48.748;9.166;2023-02-19T06:35:02;0.28;;;0.28;;
23632;SDS011;11993;48.748;9.166;2023-02-19T06:37:28;0.35;;;0.30;;
23632;SDS011;11993;48.748;9.166;2023-02-19T06:39:54;0.40;;;0.40;;
23632;SDS011;11993;48.748;9.166;2023-02-19T06:42:19;0.50;;;0.50;;
23632;SDS011;11993;48.748;9.166;2023-02-19T06:44:45;0.73;;;0.40;;
23632;SDS011;11993;48.748;9.166;2023-02-19T06:47:10;0.60;;;0.50;;
23632;SDS011;11993;48.748;9.166;2023-02-19T06:49:37;0.50;;;0.50;;
23632;SDS011;11993;48.748;9.166;2023-02-19T06:52:04;1.67;;;0.50;;
23632;SDS011;11993;48.748;9.166;2023-02-19T06:54:29;0.68;;;0.60;;
23632;SDS011;11993;48.748;9.166;2023-02-19T06:56:57;0.57;;;0.57;;
23632;SDS011;11993;48.748;9.166;2023-02-19T06:59:23;0.55;;;0.55;;
23632;SDS011;11993;48.748;9.166;2023-02-19T07:01:49;0.95;;;0.70;;
23632;SDS011;11993;48.748;9.166;2023-02-19T07:04:14;2.03;;;0.63;;
23632;SDS011;11993;48.748;9.166;2023-02-19T07:06:40;0.85;;;0.73;;
23632;SDS011;11993;48.748;9.166;2023-02-19T07:09:06;0.70;;;0.70;;
23632;SDS011;11993;48.748;9.166;2023-02-19T07:11:32;1.42;;;0.80;;
23632;SDS011;11993;48.748;9.166;2023-02-19T07:14:00;0.85;;;0.77;;
23632;SDS011;11993;48.748;9.166;2023-02-19T07:16:27;0.60;;;0.60;;
23632;SDS011;11993;48.748;9.166;2023-02-19T07:18:57;0.73;;;0.70;;
23632;SDS011;11993;48.748;9.166;2023-02-19T07:21:23;1.83;;;0.70;;
23632;SDS011;11993;48.748;9.166;2023-02-19T07:23:49;2.47;;;0.70;;
23632;SDS011;11993;48.748;9.166;2023-02-19T07:26:15;1.70;;;0.65;;
23632;SDS011;11993;48.748;9.166;2023-02-19T07:28:43;1.10;;;0.80;;
23632;SDS011;11993;48.748;9.166;2023-02-19T07:31:09;1.33;;;0.80;;
23632;SDS011;11993;48.748;9.166;2023-02-19T07:33:35;0.65;;;0.60;;
23632;SDS011;11993;48.748;9.166;2023-02-19T07:36:01;2.58;;;0.90;;
23632;SDS011;11993;48.748;9.166;2023-02-19T07:38:27;1.00;;;0.80;;
23632;SDS011;11993;48.748;9.166;2023-02-19T07:40:57;0.80;;;0.80;;
23632;SDS011;11993;48.748;9.166;2023-02-19T07:43:24;0.75;;;0.75;;
23632;SDS011;11993;48.748;9.166;2023-02-19T07:45:52;1.67;;;0.75;;
23632;SDS011;11993;48.748;9.166;2023-02-19T07:48:18;1.20;;;1.10;;
23632;SDS011;11993;48.748;9.166;2023-02-19T07:50:53;1.40;;;1.10;;
23632;SDS011;11993;48.748;9.166;2023-02-19T07:53:20;0.95;;;0.80;;
23632;SDS011;11993;48.748;9.166;2023-02-19T07:55:48;1.20;;;0.80;;
23632;SDS011;11993;48.748;9.166;2023-02-19T07:58:13;4.60;;;1.05;;
23632;SDS011;11993;48.748;9.166;2023-02-19T08:00:39;0.70;;;0.70;;
23632;SDS011;11993;48.748;9.166;2023-02-19T08:03:05;1.38;;;1.10;;
23632;SDS011;11993;48.748;9.166;2023-02-19T08:05:31;1.60;;;1.00;;
23632;SDS011;11993;48.748;9.166;2023-02-19T08:08:01;1.08;;;0.98;;
23632;SDS011;11993;48.748;9.166;2023-02-19T08:10:29;0.93;;;0.82;;
23632;SDS011;11993;48.748;9.166;2023-02-19T08:13:14;4.00;;;0.93;;
23632;SDS011;11993;48.748;9.166;2023-02-19T08:15:47;2.30;;;1.05;;
23632;SDS011;11993;48.748;9.166;2023-02-19T08:18:16;2.03;;;1.05;;
23632;SDS011;11993;48.748;9.166;2023-02-19T08:20:43;1.42;;;1.00;;
23632;SDS011;11993;48.748;9.166;2023-02-19T08:23:08;1.13;;;0.90;;
23632;SDS011;11993;48.748;9.166;2023-02-19T08:25:36;1.67;;;0.95;;
23632;SDS011;11993;48.748;9.166;2023-02-19T08:28:02;2.25;;;0.95;;
23632;SDS011;11993;48.748;9.166;2023-02-19T08:30:28;1.35;;;1.05;;
23632;SDS011;11993;48.748;9.166;2023-02-19T08:32:56;1.17;;;0.65;;
23632;SDS011;11993;48.748;9.166;2023-02-19T08:35:22;2.55;;;0.90;;
23632;SDS011;11993;48.748;9.166;2023-02-19T08:37:48;1.00;;;0.90;;
23632;SDS011;11993;48.748;9.166;2023-02-19T08:40:14;1.33;;;0.90;;
23632;SDS011;11993;48.748;9.166;2023-02-19T08:42:39;1.42;;;0.80;;
23632;SDS011;11993;48.748;9.166;2023-02-19T08:45:05;2.45;;;0.98;;
23632;SDS011;11993;48.748;9.166;2023-02-19T08:47:33;1.45;;;0.80;;
23632;SDS011;11993;48.748;9.166;2023-02-19T08:49:59;1.48;;;0.80;;
23632;SDS011;11993;48.748;9.166;2023-02-19T08:52:25;1.02;;;0.60;;
23632;SDS011;11993;48.748;9.166;2023-02-19T08:54:50;2.05;;;0.82;;
23632;SDS011;11993;48.748;9.166;2023-02-19T08:57:16;1.35;;;0.80;;
23632;SDS011;11993;48.748;9.166;2023-02-19T08:59:43;1.48;;;0.80;;
23632;SDS011;11993;48.748;9.166;2023-02-19T09:02:08;0.80;;;0.70;;
23632;SDS011;11993;48.748;9.166;2023-02-19T09:04:34;0.73;;;0.70;;
23632;SDS011;11993;48.748;9.166;2023-02-19T09:07:01;2.63;;;0.82;;
23632;SDS011;11993;48.748;9.166;2023-02-19T09:09:31;2.78;;;0.98;;
23632;SDS011;11993;48.748;9.166;2023-02-19T09:11:57;2.03;;;1.00;;
23632;SDS011;11993;48.748;9.166;2023-02-19T09:14:23;2.25;;;1.00;;
23632;SDS011;11993;48.748;9.166;2023-02-19T09:16:48;1.58;;;1.05;;
23632;SDS011;11993;48.748;9.166;2023-02-19T09:19:14;2.70;;;1.10;;
23632;SDS011;11993;48.748;9.166;2023-02-19T09:21:41;2.03;;;0.88;;
23632;SDS011;11993;48.748;9.166;2023-02-19T09:24:07;2.65;;;1.05;;
23632;SDS011;11993;48.748;9.166;2023-02-19T09:26:34;1.45;;;0.95;;
23632;SDS011;11993;48.748;9.166;2023-02-19T09:28:59;1.92;;;0.95;;
23632;SDS011;11993;48.748;9.166;2023-02-19T09:31:25;1.40;;;0.90;;
23632;SDS011;11993;48.748;9.166;2023-02-19T09:33:50;2.33;;;1.17;;
23632;SDS011;11993;48.748;9.166;2023-02-19T09:36:16;3.47;;;1.10;;
23632;SDS011;11993;48.748;9.166;2023-02-19T09:38:42;2.30;;;1.10;;
23632;SDS011;11993;48.748;9.166;2023-02-19T09:41:13;4.75;;;1.60;;
23632;SDS011;11993;48.748;9.166;2023-02-19T09:43:47;4.68;;;1.30;;
23632;SDS011;11993;48.748;9.166;2023-02-19T09:46:24;3.83;;;1.27;;
23632;SDS011;11993;48.748;9.166;2023-02-19T09:49:34;4.72;;;1.65;;
23632;SDS011;11993;48.748;9.166;2023-02-19T09:51:57;1.80;;;1.08;;
23632;SDS011;11993;48.748;9.166;2023-02-19T09:56:58;3.60;;;1.80;;
23632;SDS011;11993;48.748;9.166;2023-02-19T09:59:26;5.15;;;1.30;;
23632;SDS011;11993;48.748;9.166;2023-02-19T10:02:02;2.58;;;1.00;;
23632;SDS011;11993;48.748;9.166;2023-02-19T10:04:36;4.30;;;1.52;;
23632;SDS011;11993;48.748;9.166;2023-02-19T10:07:05;1.90;;;1.08;;
23632;SDS011;11993;48.748;9.166;2023-02-19T10:09:37;1.60;;;0.77;;
23632;SDS011;11993;48.748;9.166;2023-02-19T10:12:03;3.17;;;1.38;;
23632;SDS011;11993;48.748;9.166;2023-02-19T10:14:43;5.82;;;1.08;;
23632;SDS011;11993;48.748;9.166;2023-02-19T10:17:23;3.95;;;1.33;;
23632;SDS011;11993;48.748;9.166;2023-02-19T10:19:50;4.85;;;1.38;;
23632;SDS011;11993;48.748;9.166;2023-02-19T10:22:17;6.28;;;1.38;;
23632;SDS011;11993;48.748;9.166;2023-02-19T10:24:43;6.18;;;1.10;;
23632;SDS011;11993;48.748;9.166;2023-02-19T10:27:18;2.97;;;1.05;;
23632;SDS011;11993;48.748;9.166;2023-02-19T10:29:45;3.15;;;1.05;;
23632;SDS011;11993;48.748;9.166;2023-02-19T10:32:17;3.10;;;1.30;;
23632;SDS011;11993;48.748;9.166;2023-02-19T10:34:47;4.10;;;1.45;;
23632;SDS011;11993;48.748;9.166;2023-02-19T10:37:31;6.65;;;1.40;;
23632;SDS011;11993;48.748;9.166;2023-02-19T10:39:57;2.63;;;1.30;;
23632;SDS011;11993;48.748;9.166;2023-02-19T10:42:22;2.78;;;1.40;;
23632;SDS011;11993;48.748;9.166;2023-02-19T10:45:00;4.32;;;1.30;;
23632;SDS011;11993;48.748;9.166;2023-02-19T10:47:28;4.82;;;1.42;;
23632;SDS011;11993;48.748;9.166;2023-02-19T10:49:57;4.60;;;1.48;;
23632;SDS011;11993;48.748;9.166;2023-02-19T10:52:25;5.07;;;1.30;;
23632;SDS011;11993;48.748;9.166;2023-02-19T10:54:55;5.25;;;1.58;;
23632;SDS011;11993;48.748;9.166;2023-02-19T10:57:39;8.23;;;1.23;;
23632;SDS011;11993;48.748;9.166;2023-02-19T11:02:40;3.22;;;1.33;;
23632;SDS011;11993;48.748;9.166;2023-02-19T11:07:36;5.63;;;1.30;;
23632;SDS011;11993;48.748;9.166;2023-02-19T11:10:24;4.32;;;1.02;;
23632;SDS011;11993;48.748;9.166;2023-02-19T11:12:53;3.85;;;1.20;;
23632;SDS011;11993;48.748;9.166;2023-02-19T11:15:30;6.97;;;1.38;;
23632;SDS011;11993;48.748;9.166;2023-02-19T11:20:30;5.93;;;1.33;;
23632;SDS011;11993;48.748;9.166;2023-02-19T11:22:59;5.05;;;1.55;;
23632;SDS011;11993;48.748;9.166;2023-02-19T11:25:31;7.22;;;1.75;;
23632;SDS011;11993;48.748;9.166;2023-02-19T11:28:22;4.07;;;1.17;;
23632;SDS011;11993;48.748;9.166;2023-02-19T11:31:11;4.30;;;1.02;;
23632;SDS011;11993;48.748;9.166;2023-02-19T11:33:42;4.13;;;1.38;;
23632;SDS011;11993;48.748;9.166;2023-02-19T11:38:51;4.75;;;1.42;;
23632;SDS011;11993;48.748;9.166;2023-02-19T11:41:29;5.93;;;1.08;;
23632;SDS011;11993;48.748;9.166;2023-02-19T11:56:04;6.97;;;1.30;;
23632;SDS011;11993;48.748;9.166;2023-02-19T12:01:20;5.05;;;1.73;;
23632;SDS011;11993;48.748;9.166;2023-02-19T12:12:03;3.25;;;1.30;;
23632;SDS011;11993;48.748;9.166;2023-02-19T12:22:32;3.17;;;1.17;;
23632;SDS011;11993;48.748;9.166;2023-02-19T12:28:17;2.88;;;1.00;;
23632;SDS011;11993;48.748;9.166;2023-02-19T12:34:17;3.97;;;1.35;;
23632;SDS011;11993;48.748;9.166;2023-02-19T12:36:52;5.50;;;1.17;;
23632;SDS011;11993;48.748;9.166;2023-02-19T12:40:12;4.00;;;1.40;;
23632;SDS011;11993;48.748;9.166;2023-02-19T12:43:19;4.45;;;1.30;;
23632;SDS011;11993;48.748;9.166;2023-02-19T12:45:54;5.15;;;1.30;;
23632;SDS011;11993;48.748;9.166;2023-02-19T12:48:35;5.65;;;1.20;;
23632;SDS011;11993;48.748;9.166;2023-02-19T12:53:53;5.70;;;1.30;;
23632;SDS011;11993;48.748;9.166;2023-02-19T12:56:32;3.55;;;1.13;;
23632;SDS011;11993;48.748;9.166;2023-02-19T13:04:57;2.80;;;1.25;;
23632;SDS011;11993;48.748;9.166;2023-02-19T13:12:50;4.78;;;1.90;;
23632;SDS011;11993;48.748;9.166;2023-02-19T13:15:52;3.15;;;1.20;;
23632;SDS011;11993;48.748;9.166;2023-02-19T13:18:25;2.38;;;1.08;;
23632;SDS011;11993;48.748;9.166;2023-02-19T13:21:01;2.45;;;1.20;;
23632;SDS011;11993;48.748;9.166;2023-02-19T13:23:31;3.63;;;1.50;;
23632;SDS011;11993;48.748;9.166;2023-02-19T13:36:56;3.65;;;1.30;;
23632;SDS011;11993;48.748;9.166;2023-02-19T13:39:31;5.63;;;1.50;;
23632;SDS011;11993;48.748;9.166;2023-02-19T13:41:57;6.65;;;1.70;;
23632;SDS011;11993;48.748;9.166;2023-02-19T13:44:28;3.35;;;1.27;;
23632;SDS011;11993;48.748;9.166;2023-02-19T13:46:56;5.07;;;1.65;;
23632;SDS011;11993;48.748;9.166;2023-02-19T14:00:59;6.70;;;1.25;;
23632;SDS011;11993;48.748;9.166;2023-02-19T14:06:12;4.05;;;1.52;;
23632;SDS011;11993;48.748;9.166;2023-02-19T14:08:49;4.03;;;1.20;;
23632;SDS011;11993;48.748;9.166;2023-02-19T14:11:18;4.10;;;1.45;;
23632;SDS011;11993;48.748;9.166;2023-02-19T14:14:25;3.67;;;1.40;;
23632;SDS011;11993;48.748;9.166;2023-02-19T14:27:58;3.50;;;1.38;;
23632;SDS011;11993;48.748;9.166;2023-02-19T14:30:39;3.67;;;1.63;;
23632;SDS011;11993;48.748;9.166;2023-02-19T14:33:18;5.15;;;1.33;;
23632;SDS011;11993;48.748;9.166;2023-02-19T14:35:48;6.25;;;1.40;;
23632;SDS011;11993;48.748;9.166;2023-02-19T14:38:28;4.35;;;1.10;;
23632;SDS011;11993;48.748;9.166;2023-02-19T14:40:57;3.80;;;1.20;;
23632;SDS011;11993;48.748;9.166;2023-02-19T14:43:24;4.03;;;1.30;;
23632;SDS011;11993;48.748;9.166;2023-02-19T14:46:02;5.15;;;1.20;;
23632;SDS011;11993;48.748;9.166;2023-02-19T14:48:35;5.75;;;1.40;;
23632;SDS011;11993;48.748;9.166;2023-02-19T14:51:12;8.50;;;1.83;;
23632;SDS011;11993;48.748;9.166;2023-02-19T14:53:51;8.10;;;2.42;;
23632;SDS011;11993;48.748;9.166;2023-02-19T14:56:27;11.32;;;5.00;;
23632;SDS011;11993;48.748;9.166;2023-02-19T14:59:04;4.50;;;1.65;;
23632;SDS011;11993;48.748;9.166;2023-02-19T15:01:30;5.50;;;1.33;;
23632;SDS011;11993;48.748;9.166;2023-02-19T15:03:55;4.25;;;1.52;;
23632;SDS011;11993;48.748;9.166;2023-02-19T15:06:23;4.13;;;1.52;;
23632;SDS011;11993;48.748;9.166;2023-02-19T15:08:51;5.80;;;1.58;;
23632;SDS011;11993;48.748;9.166;2023-02-19T15:11:22;6.85;;;1.70;;
23632;SDS011;11993;48.748;9.166;2023-02-19T15:13:51;6.07;;;1.73;;
23632;SDS011;11993;48.748;9.166;2023-02-19T15:16:27;3.28;;;1.38;;
23632;SDS011;11993;48.748;9.166;2023-02-19T15:18:54;3.63;;;1.27;;
23632;SDS011;11993;48.748;9.166;2023-02-19T15:21:24;7.78;;;1.60;;
23632;SDS011;11993;48.748;9.166;2023-02-19T15:23:52;5.20;;;1.27;;
23632;SDS011;11993;48.748;9.166;2023-02-19T15:26:21;3.40;;;1.42;;
23632;SDS011;11993;48.748;9.166;2023-02-19T15:28:57;3.42;;;1.08;;
23632;SDS011;11993;48.748;9.166;2023-02-19T15:31:26;4.60;;;1.30;;
23632;SDS011;11993;48.748;9.166;2023-02-19T15:33:52;5.68;;;1.60;;
23632;SDS011;11993;48.748;9.166;2023-02-19T15:36:25;3.20;;;1.48;;
23632;SDS011;11993;48.748;9.166;2023-02-19T15:38:57;6.57;;;1.73;;
23632;SDS011;11993;48.748;9.166;2023-02-19T15:41:25;3.83;;;1.50;;
23632;SDS011;11993;48.748;9.166;2023-02-19T15:43:55;2.05;;;1.15;;
23632;SDS011;11993;48.748;9.166;2023-02-19T15:46:25;8.63;;;1.65;;
23632;SDS011;11993;48.748;9.166;2023-02-19T15:48:59;4.22;;;1.58;;
23632;SDS011;11993;48.748;9.166;2023-02-19T15:51:38;4.40;;;1.40;;
23632;SDS011;11993;48.748;9.166;2023-02-19T15:56:43;3.80;;;1.35;;
23632;SDS011;11993;48.748;9.166;2023-02-19T15:59:23;5.80;;;2.33;;
23632;SDS011;11993;48.748;9.166;2023-02-19T16:01:57;5.97;;;1.92;;
23632;SDS011;11993;48.748;9.166;2023-02-19T16:04:24;5.10;;;1.58;;
23632;SDS011;11993;48.748;9.166;2023-02-19T16:06:56;4.40;;;1.55;;
23632;SDS011;11993;48.748;9.166;2023-02-19T16:09:29;9.82;;;2.08;;
23632;SDS011;11993;48.748;9.166;2023-02-19T16:12:03;6.55;;;1.67;;
23632;SDS011;11993;48.748;9.166;2023-02-19T16:14:47;7.70;;;1.90;;
23632;SDS011;11993;48.748;9.166;2023-02-19T16:17:15;5.20;;;1.85;;
23632;SDS011;11993;48.748;9.166;2023-02-19T16:19:47;5.03;;;1.65;;
23632;SDS011;11993;48.748;9.166;2023-02-19T16:22:19;5.75;;;1.65;;
23632;SDS011;11993;48.748;9.166;2023-02-19T16:24:52;6.07;;;1.77;;
23632;SDS011;11993;48.748;9.166;2023-02-19T16:30:09;5.20;;;1.60;;
23632;SDS011;11993;48.748;9.166;2023-02-19T16:33:10;8.10;;;1.80;;
23632;SDS011;11993;48.748;9.166;2023-02-19T16:35:45;4.47;;;1.30;;
23632;SDS011;11993;48.748;9.166;2023-02-19T16:38:16;6.63;;;1.65;;
23632;SDS011;11993;48.748;9.166;2023-02-19T16:45:59;4.88;;;2.63;;
23632;SDS011;11993;48.748;9.166;2023-02-19T16:48:28;6.72;;;2.70;;
23632;SDS011;11993;48.748;9.166;2023-02-19T16:50:56;9.63;;;4.22;;
23632;SDS011;11993;48.748;9.166;2023-02-19T16:53:23;3.95;;;1.75;;
23632;SDS011;11993;48.748;9.166;2023-02-19T16:55:49;6.07;;;1.85;;
23632;SDS011;11993;48.748;9.166;2023-02-19T16:58:15;3.90;;;1.77;;
23632;SDS011;11993;48.748;9.166;2023-02-19T17:00:41;4.97;;;1.75;;
23632;SDS011;11993;48.748;9.166;2023-02-19T17:03:08;5.90;;;2.03;;
23632;SDS011;11993;48.748;9.166;2023-02-19T17:05:36;6.75;;;1.98;;
23632;SDS011;11993;48.748;9.166;2023-02-19T17:08:05;5.18;;;1.75;;
23632;SDS011;11993;48.748;9.166;2023-02-19T17:10:49;10.25;;;2.67;;
23632;SDS011;11993;48.748;9.166;2023-02-19T17:13:14;3.90;;;1.95;;